createdAt,value
2022-11-03T05:00:34.879Z,1005.34
2022-11-03T05:01:34.988Z,1005.30
2022-11-03T05:02:34.801Z,1005.31
2022-11-03T05:03:34.795Z,1005.27
2022-11-03T05:04:34.780Z,1005.36
2022-11-03T05:05:34.769Z,1005.29
2022-11-03T05:06:34.767Z,1005.28
2022-11-03T05:07:34.751Z,1005.21
2022-11-03T05:08:34.741Z,1005.23
2022-11-03T05:09:37.800Z,1005.18
2022-11-03T05:10:35.713Z,1005.17
2022-11-03T05:11:39.740Z,1005.11
2022-11-03T05:12:34.693Z,1005.14
2022-11-03T05:13:34.682Z,1005.10
2022-11-03T05:14:34.671Z,1005.12
2022-11-03T05:15:34.659Z,1005.02
2022-11-03T05:16:34.663Z,1005.06
2022-11-03T05:17:34.648Z,1005.05
2022-11-03T05:18:34.632Z,1004.97
2022-11-03T05:19:34.620Z,1004.90
2022-11-03T05:20:36.246Z,1004.97
2022-11-03T05:21:34.606Z,1004.91
2022-11-03T05:22:39.603Z,1004.83
2022-11-03T05:23:34.581Z,1004.88
2022-11-03T05:24:34.562Z,1004.84
2022-11-03T05:25:34.548Z,1004.84
2022-11-03T05:26:34.553Z,1004.87
2022-11-03T05:27:34.528Z,1004.86
2022-11-03T05:28:34.510Z,1004.85
2022-11-03T05:29:34.501Z,1004.86
2022-11-03T05:30:34.487Z,1004.86
2022-11-03T05:31:34.493Z,1004.89
2022-11-03T05:32:34.487Z,1004.88
2022-11-03T05:33:39.480Z,1004.82
2022-11-03T05:34:34.448Z,1004.88
2022-11-03T05:35:34.500Z,1004.83
2022-11-03T05:36:34.424Z,1004.80
2022-11-03T05:37:34.423Z,1004.83
2022-11-03T05:38:34.396Z,1004.83
2022-11-03T05:39:34.389Z,1004.87
2022-11-03T05:40:34.374Z,1004.73
2022-11-03T05:41:34.368Z,1004.80
2022-11-03T05:42:34.364Z,1004.74
2022-11-03T05:43:34.417Z,1004.72
2022-11-03T05:44:39.411Z,1004.75
2022-11-03T05:45:34.323Z,1004.71
2022-11-03T05:46:34.308Z,1004.68
2022-11-03T05:47:34.314Z,1004.67
2022-11-03T05:48:34.310Z,1004.62
2022-11-03T05:49:34.276Z,1004.64
2022-11-03T05:50:34.265Z,1004.61
2022-11-03T05:51:34.252Z,1004.58
2022-11-03T05:52:34.248Z,1004.56
2022-11-03T05:53:34.230Z,1004.57
2022-11-03T05:54:34.225Z,1004.52
2022-11-03T05:55:39.230Z,1004.43
2022-11-03T05:56:34.199Z,1004.50
2022-11-03T05:57:34.194Z,1004.42
2022-11-03T05:58:34.172Z,1004.39
2022-11-03T05:59:34.165Z,1004.42
2022-11-03T06:00:34.150Z,1004.36
2022-11-03T06:01:34.181Z,1004.36
2022-11-03T06:02:34.194Z,1004.41
2022-11-03T06:03:34.128Z,1004.32
2022-11-03T06:04:34.125Z,1004.33
2022-11-03T06:05:34.105Z,1004.34
2022-11-03T06:06:39.107Z,1004.33
2022-11-03T06:07:34.084Z,1004.34
2022-11-03T06:08:34.069Z,1004.28
2022-11-03T06:09:34.056Z,1004.24
2022-11-03T06:10:34.038Z,1004.27
2022-11-03T06:11:34.041Z,1004.28
2022-11-03T06:12:34.028Z,1004.22
2022-11-03T06:13:34.002Z,1004.22
2022-11-03T06:14:33.993Z,1004.26
2022-11-03T06:15:33.999Z,1004.30
2022-11-03T06:16:33.975Z,1004.26
2022-11-03T06:17:38.995Z,1004.31
2022-11-03T06:18:33.948Z,1004.25
2022-11-03T06:19:33.934Z,1004.25
2022-11-03T06:20:33.943Z,1004.30
2022-11-03T06:21:33.916Z,1004.26
2022-11-03T06:22:33.900Z,1004.31
2022-11-03T06:23:33.902Z,1004.31
2022-11-03T06:24:33.890Z,1004.32
2022-11-03T06:25:33.868Z,1004.35
2022-11-03T06:26:33.859Z,1004.43
2022-11-03T06:27:33.850Z,1004.35
2022-11-03T06:28:38.864Z,1004.39
2022-11-03T06:29:33.823Z,1004.37
2022-11-03T06:30:33.896Z,1004.39
2022-11-03T06:31:33.814Z,1004.40
2022-11-03T06:32:33.792Z,1004.37
2022-11-03T06:33:33.803Z,1004.24
2022-11-03T06:34:33.769Z,1004.24
2022-11-03T06:35:33.823Z,1004.22
2022-11-03T06:36:33.763Z,1004.14
2022-11-03T06:37:33.736Z,1004.21
2022-11-03T06:38:33.739Z,1004.15
2022-11-03T06:39:38.731Z,1004.21
2022-11-03T06:40:33.698Z,1004.20
2022-11-03T06:41:33.689Z,1004.21
2022-11-03T06:42:33.680Z,1004.15
2022-11-03T06:43:33.664Z,1004.16
2022-11-03T06:44:33.676Z,1004.15
2022-11-03T06:45:33.652Z,1004.12
2022-11-03T06:46:33.634Z,1004.12
2022-11-03T06:47:33.621Z,1004.05
2022-11-03T06:48:33.607Z,1003.99
2022-11-03T06:49:33.613Z,1004.00
2022-11-03T06:50:42.371Z,1003.97
2022-11-03T06:51:34.575Z,1003.97
2022-11-03T06:52:33.687Z,1004.02
2022-11-03T06:53:33.556Z,1003.92
2022-11-03T06:54:33.547Z,1004.04
2022-11-03T06:55:33.533Z,1003.99
2022-11-03T06:56:33.521Z,1004.04
2022-11-03T06:57:33.507Z,1003.98
2022-11-03T06:58:33.497Z,1003.99
2022-11-03T06:59:33.502Z,1003.99
2022-11-03T07:00:35.406Z,1003.94
2022-11-03T07:01:38.615Z,1003.99
2022-11-03T07:02:33.596Z,1003.98
2022-11-03T07:03:33.591Z,1003.92
2022-11-03T07:04:33.449Z,1003.86
2022-11-03T07:05:33.456Z,1003.86
2022-11-03T07:06:33.429Z,1003.74
2022-11-03T07:07:33.405Z,1003.70
2022-11-03T07:08:33.406Z,1003.70
2022-11-03T07:09:33.394Z,1003.68
2022-11-03T07:10:33.367Z,1003.67
2022-11-03T07:11:33.366Z,1003.67
2022-11-03T07:12:38.360Z,1003.67
2022-11-03T07:13:33.389Z,1003.71
2022-11-03T07:14:33.341Z,1003.74
2022-11-03T07:15:33.322Z,1003.73
2022-11-03T07:16:33.334Z,1003.75
2022-11-03T07:17:33.302Z,1003.81
2022-11-03T07:18:33.282Z,1003.81
2022-11-03T07:19:33.271Z,1003.83
2022-11-03T07:20:33.263Z,1003.83
2022-11-03T07:21:33.250Z,1003.81
2022-11-03T07:22:33.228Z,1003.74
2022-11-03T07:23:40.187Z,1003.77
2022-11-03T07:24:34.214Z,1003.76
2022-11-03T07:25:33.207Z,1003.78
2022-11-03T07:26:33.193Z,1003.80
2022-11-03T07:27:33.175Z,1003.79
2022-11-03T07:28:33.181Z,1003.79
2022-11-03T07:29:33.144Z,1003.78
2022-11-03T07:30:33.134Z,1003.75
2022-11-03T07:31:33.135Z,1003.65
2022-11-03T07:32:33.150Z,1003.63
2022-11-03T07:33:33.114Z,1003.60
2022-11-03T07:34:38.133Z,1003.60
2022-11-03T07:35:53.345Z,1003.54
2022-11-03T07:36:34.071Z,1003.57
2022-11-03T07:37:33.054Z,1003.49
2022-11-03T07:38:33.055Z,1003.55
2022-11-03T07:39:33.057Z,1003.48
2022-11-03T07:40:33.023Z,1003.50
2022-11-03T07:41:34.472Z,1003.47
2022-11-03T07:42:33.014Z,1003.43
2022-11-03T07:43:33.000Z,1003.37
2022-11-03T07:44:32.998Z,1003.38
2022-11-03T07:45:38.002Z,1003.40
2022-11-03T07:46:32.957Z,1003.43
2022-11-03T07:47:32.946Z,1003.45
2022-11-03T07:48:32.937Z,1003.43
2022-11-03T07:49:32.930Z,1003.44
2022-11-03T07:50:32.925Z,1003.37
2022-11-03T07:51:32.902Z,1003.36
2022-11-03T07:52:32.905Z,1003.34
2022-11-03T07:53:32.880Z,1003.36
2022-11-03T07:54:32.884Z,1003.26
2022-11-03T07:55:32.887Z,1003.18
2022-11-03T07:56:37.893Z,1003.18
2022-11-03T07:57:32.834Z,1003.15
2022-11-03T07:58:32.863Z,1003.13
2022-11-03T07:59:32.827Z,1003.11
2022-11-03T08:00:32.824Z,1003.07
2022-11-03T08:01:32.927Z,1003.03
2022-11-03T08:02:32.828Z,1003.01
2022-11-03T08:03:32.767Z,1002.96
2022-11-03T08:04:32.768Z,1002.96
2022-11-03T08:05:32.743Z,1002.93
2022-11-03T08:06:32.755Z,1002.97
2022-11-03T08:07:37.752Z,1002.93
2022-11-03T08:08:32.710Z,1002.93
2022-11-03T08:09:32.713Z,1002.97
2022-11-03T08:10:32.698Z,1002.96
2022-11-03T08:11:32.698Z,1002.97
2022-11-03T08:12:32.671Z,1002.98
2022-11-03T08:13:32.655Z,1002.95
2022-11-03T08:14:32.652Z,1002.94
2022-11-03T08:15:32.637Z,1002.79
2022-11-03T08:16:32.620Z,1002.76
2022-11-03T08:17:32.617Z,1002.71
2022-11-03T08:18:37.623Z,1002.73
2022-11-03T08:19:32.598Z,1002.65
2022-11-03T08:20:32.579Z,1002.66
2022-11-03T08:21:32.573Z,1002.66
2022-11-03T08:22:32.554Z,1002.63
2022-11-03T08:23:32.993Z,1002.64
2022-11-03T08:24:32.544Z,1002.62
2022-11-03T08:25:32.521Z,1002.63
2022-11-03T08:26:32.511Z,1002.66
2022-11-03T08:27:32.523Z,1002.66
2022-11-03T08:28:32.500Z,1002.71
2022-11-03T08:29:37.518Z,1002.73
2022-11-03T08:30:32.472Z,1002.78
2022-11-03T08:31:32.451Z,1002.75
2022-11-03T08:32:32.499Z,1002.73
2022-11-03T08:33:32.551Z,1002.75
2022-11-03T08:34:32.433Z,1002.78
2022-11-03T08:35:34.049Z,1002.70
2022-11-03T08:36:32.399Z,1002.68
2022-11-03T08:37:32.387Z,1002.78
2022-11-03T08:38:32.374Z,1002.69
2022-11-03T08:39:32.383Z,1002.67
2022-11-03T08:40:37.379Z,1002.74
2022-11-03T08:41:32.358Z,1002.75
2022-11-03T08:42:32.331Z,1002.73
2022-11-03T08:43:32.338Z,1002.67
2022-11-03T08:44:32.327Z,1002.67
2022-11-03T08:45:32.303Z,1002.76
2022-11-03T08:46:32.287Z,1002.74
2022-11-03T08:47:32.272Z,1002.74
2022-11-03T08:48:32.265Z,1002.77
2022-11-03T08:49:32.267Z,1002.80
2022-11-03T08:50:32.249Z,1002.69
2022-11-03T08:51:43.013Z,1002.71
2022-11-03T08:52:33.217Z,1002.73
2022-11-03T08:53:32.208Z,1002.74
2022-11-03T08:54:32.208Z,1002.71
2022-11-03T08:55:32.214Z,1002.61
2022-11-03T08:56:32.180Z,1002.58
2022-11-03T08:57:32.161Z,1002.50
2022-11-03T08:58:32.152Z,1002.58
2022-11-03T08:59:32.167Z,1002.49
2022-11-03T09:00:34.906Z,1002.57
2022-11-03T09:01:32.160Z,1002.52
2022-11-03T09:02:37.260Z,1002.43
2022-11-03T09:03:32.184Z,1002.49
2022-11-03T09:04:32.108Z,1002.53
2022-11-03T09:05:32.071Z,1002.42
2022-11-03T09:06:32.067Z,1002.41
2022-11-03T09:10:35.684Z,1002.46
2022-11-03T09:11:33.005Z,1002.47
2022-11-03T09:12:32.009Z,1002.42
2022-11-03T09:13:37.003Z,1002.46
2022-11-03T09:14:31.974Z,1002.42
2022-11-03T09:15:31.999Z,1002.40
2022-11-03T09:16:31.947Z,1002.43
2022-11-03T09:17:31.944Z,1002.31
2022-11-03T09:18:31.933Z,1002.43
2022-11-03T09:19:31.913Z,1002.31
2022-11-03T09:20:31.912Z,1002.37
2022-11-03T09:21:31.918Z,1002.33
2022-11-03T09:22:31.883Z,1002.31
2022-11-03T09:23:31.899Z,1002.33
2022-11-03T09:24:36.892Z,1002.29
2022-11-03T09:25:31.868Z,1002.28
2022-11-03T09:26:31.836Z,1002.27
2022-11-03T09:27:31.822Z,1002.21
2022-11-03T09:28:31.813Z,1002.25
2022-11-03T09:29:51.657Z,1002.25
2022-11-03T09:30:32.803Z,1002.18
2022-11-03T09:31:31.798Z,1002.13
2022-11-03T09:32:31.774Z,1002.07
2022-11-03T09:33:31.757Z,1002.04
2022-11-03T09:34:31.744Z,1002.09
2022-11-03T09:35:36.762Z,1002.11
2022-11-03T09:36:31.722Z,1002.08
2022-11-03T09:37:31.708Z,1002.09
2022-11-03T09:38:31.703Z,1002.07
2022-11-03T09:39:31.685Z,1001.98
2022-11-03T09:40:31.692Z,1001.97
2022-11-03T09:41:53.750Z,1001.96
2022-11-03T09:42:32.654Z,1001.97
2022-11-03T09:43:31.641Z,1001.92
2022-11-03T09:44:31.632Z,1001.94
2022-11-03T09:45:31.640Z,1001.91
2022-11-03T09:46:36.648Z,1001.91
2022-11-03T09:47:31.596Z,1001.87
2022-11-03T09:48:31.593Z,1001.88
2022-11-03T09:49:31.576Z,1001.94
2022-11-03T09:50:31.582Z,1001.84
2022-11-03T09:51:31.555Z,1001.84
2022-11-03T09:52:31.542Z,1001.84
2022-11-03T09:53:31.538Z,1001.78
2022-11-03T09:54:31.524Z,1001.80
2022-11-03T09:55:31.517Z,1001.83
2022-11-03T09:56:31.532Z,1001.76
2022-11-03T09:57:36.510Z,1001.80
2022-11-03T09:58:31.478Z,1001.73
2022-11-03T09:59:31.466Z,1001.71
2022-11-03T10:00:31.542Z,1001.67
2022-11-03T10:01:31.654Z,1001.55
2022-11-03T10:02:31.587Z,1001.52
2022-11-03T10:03:31.421Z,1001.47
2022-11-03T10:04:31.417Z,1001.41
2022-11-03T10:05:31.461Z,1001.43
2022-11-03T10:06:31.392Z,1001.49
2022-11-03T10:07:31.374Z,1001.38
2022-11-03T10:08:36.396Z,1001.45
2022-11-03T10:09:31.353Z,1001.50
2022-11-03T10:10:31.363Z,1001.51
2022-11-03T10:11:31.335Z,1001.47
2022-11-03T10:12:31.325Z,1001.51
2022-11-03T10:13:31.364Z,1001.42
2022-11-03T10:14:31.299Z,1001.38
2022-11-03T10:15:31.287Z,1001.34
2022-11-03T10:16:31.313Z,1001.34
2022-11-03T10:17:31.268Z,1001.27
2022-11-03T10:18:31.286Z,1001.23
2022-11-03T10:19:36.265Z,1001.23
2022-11-03T10:20:31.234Z,1001.29
2022-11-03T10:21:31.242Z,1001.29
2022-11-03T10:22:31.223Z,1001.36
2022-11-03T10:23:31.219Z,1001.32
2022-11-03T10:24:31.191Z,1001.33
2022-11-03T10:25:31.176Z,1001.25
2022-11-03T10:26:31.180Z,1001.32
2022-11-03T10:27:31.154Z,1001.21
2022-11-03T10:28:31.150Z,1001.17
2022-11-03T10:29:32.513Z,1001.17
2022-11-03T10:30:45.383Z,1001.14
2022-11-03T10:31:32.121Z,1001.11
2022-11-03T10:32:31.105Z,1001.01
2022-11-03T10:33:31.095Z,1001.03
2022-11-03T10:34:31.102Z,1001.06
2022-11-03T10:35:31.074Z,1001.00
2022-11-03T10:36:31.067Z,1000.97
2022-11-03T10:37:31.048Z,1000.89
2022-11-03T10:38:31.038Z,1000.93
2022-11-03T10:39:31.023Z,1000.93
2022-11-03T10:40:47.487Z,1000.85
2022-11-03T10:41:37.066Z,1000.87
2022-11-03T10:42:35.530Z,1000.88
2022-11-03T10:43:31.987Z,1000.86
2022-11-03T10:44:30.975Z,1000.87
2022-11-03T10:45:30.957Z,1000.87
2022-11-03T10:46:59.636Z,1000.81
2022-11-03T10:47:31.957Z,1000.80
2022-11-03T10:48:30.936Z,1000.78
2022-11-03T10:49:30.928Z,1000.77
2022-11-03T10:50:30.929Z,1000.82
2022-11-03T10:51:30.915Z,1000.77
2022-11-03T10:52:35.914Z,1000.74
2022-11-03T10:53:30.873Z,1000.70
2022-11-03T10:54:30.860Z,1000.71
2022-11-03T10:55:30.916Z,1000.63
2022-11-03T10:56:30.853Z,1000.60
2022-11-03T10:57:30.830Z,1000.58
2022-11-03T10:58:30.865Z,1000.50
2022-11-03T10:59:30.807Z,1000.49
2022-11-03T11:00:30.798Z,1000.42
2022-11-03T11:01:30.944Z,1000.45
2022-11-03T11:02:30.929Z,1000.52
2022-11-03T11:03:35.782Z,1000.49
2022-11-03T11:04:30.814Z,1000.49
2022-11-03T11:05:30.743Z,1000.48
2022-11-03T11:06:30.748Z,1000.46
2022-11-03T11:07:30.740Z,1000.43
2022-11-03T11:08:30.777Z,1000.40
2022-11-03T11:09:30.703Z,1000.39
2022-11-03T11:10:30.687Z,1000.37
2022-11-03T11:11:30.672Z,1000.34
2022-11-03T11:12:30.672Z,1000.31
2022-11-03T11:13:30.663Z,1000.28
2022-11-03T11:14:35.667Z,1000.23
2022-11-03T11:15:30.629Z,1000.30
2022-11-03T11:16:30.618Z,1000.25
2022-11-03T11:17:30.619Z,1000.26
2022-11-03T11:18:30.603Z,1000.28
2022-11-03T11:19:30.588Z,1000.17
2022-11-03T11:20:30.575Z,1000.09
2022-11-03T11:21:33.328Z,1000.09
2022-11-03T11:22:31.584Z,1000.06
2022-11-03T11:23:30.564Z,1000.05
2022-11-03T11:24:30.535Z,1000.14
2022-11-03T11:25:35.545Z,1000.09
2022-11-03T11:26:30.508Z,1000.10
2022-11-03T11:27:30.511Z,1000.16
2022-11-03T11:28:30.488Z,1000.14
2022-11-03T11:29:30.481Z,1000.15
2022-11-03T11:30:30.464Z,1000.12
2022-11-03T11:31:30.461Z,1000.16
2022-11-03T11:32:30.456Z,1000.16
2022-11-03T11:33:30.439Z,1000.05
2022-11-03T11:34:30.420Z,1000.06
2022-11-03T11:35:30.415Z,999.99
2022-11-03T11:36:35.421Z,1000.09
2022-11-03T11:37:30.387Z,1000.04
2022-11-03T11:38:30.401Z,1000.05
2022-11-03T11:39:30.423Z,1000.12
2022-11-03T11:40:30.351Z,1000.06
2022-11-03T11:41:30.343Z,1000.02
2022-11-03T11:42:32.485Z,1000.04
2022-11-03T11:43:30.388Z,1000.01
2022-11-03T11:44:30.322Z,1000.00
2022-11-03T11:45:30.298Z,1000.06
2022-11-03T11:46:30.335Z,1000.03
2022-11-03T11:47:36.828Z,1000.07
2022-11-03T11:48:30.275Z,999.96
2022-11-03T11:49:30.255Z,999.95
2022-11-03T11:50:30.246Z,999.97
2022-11-03T11:51:30.232Z,999.91
2022-11-03T11:52:30.247Z,999.88
2022-11-03T11:53:31.961Z,999.83
2022-11-03T11:54:30.236Z,999.77
2022-11-03T11:55:30.188Z,999.75
2022-11-03T11:56:30.181Z,999.77
2022-11-03T11:57:30.212Z,999.77
2022-11-03T11:58:35.177Z,999.63
2022-11-03T11:59:30.151Z,999.65
2022-11-03T12:00:30.133Z,999.64
2022-11-03T12:01:30.190Z,999.64
2022-11-03T12:02:30.119Z,999.53
2022-11-03T12:03:30.194Z,999.52
2022-11-03T12:04:30.113Z,999.54
2022-11-03T12:05:30.082Z,999.46
2022-11-03T12:06:30.153Z,999.43
2022-11-03T12:07:30.067Z,999.42
2022-11-03T12:08:30.043Z,999.36
2022-11-03T12:09:35.116Z,999.37
2022-11-03T12:10:30.039Z,999.42
2022-11-03T12:11:30.040Z,999.28
2022-11-03T12:12:30.010Z,999.25
2022-11-03T12:13:29.992Z,999.25
2022-11-03T12:14:29.993Z,999.20
2022-11-03T12:15:29.967Z,999.17
2022-11-03T12:16:29.972Z,999.13
2022-11-03T12:17:29.956Z,999.09
2022-11-03T12:18:31.963Z,999.12
2022-11-03T12:19:30.921Z,999.03
2022-11-03T12:20:34.936Z,999.09
2022-11-03T12:21:29.899Z,999.09
2022-11-03T12:22:29.896Z,999.12
2022-11-03T12:23:29.878Z,999.06
2022-11-03T12:24:29.869Z,999.09
2022-11-03T12:25:29.898Z,999.03
2022-11-03T12:26:29.883Z,998.97
2022-11-03T12:27:29.843Z,998.91
2022-11-03T12:28:29.825Z,998.88
2022-11-03T12:29:29.807Z,998.83
2022-11-03T12:30:29.797Z,998.82
2022-11-03T12:31:37.007Z,998.84
2022-11-03T12:32:34.980Z,998.79
2022-11-03T12:33:30.763Z,998.82
2022-11-03T12:34:29.807Z,998.80
2022-11-03T12:35:29.743Z,998.79
2022-11-03T12:36:29.730Z,998.78
2022-11-03T12:37:29.732Z,998.86
2022-11-03T12:38:29.705Z,998.86
2022-11-03T12:39:29.697Z,998.82
2022-11-03T12:40:29.732Z,998.87
2022-11-03T12:41:29.696Z,998.84
2022-11-03T12:42:34.701Z,998.85
2022-11-03T12:43:29.654Z,998.77
2022-11-03T12:44:29.720Z,998.82
2022-11-03T12:45:29.632Z,998.69
2022-11-03T12:46:29.621Z,998.69
2022-11-03T12:47:29.624Z,998.68
2022-11-03T12:48:29.595Z,998.70
2022-11-03T12:49:29.589Z,998.62
2022-11-03T12:50:29.572Z,998.61
2022-11-03T12:51:29.582Z,998.63
2022-11-03T12:52:29.562Z,998.53
2022-11-03T12:53:34.567Z,998.59
2022-11-03T12:54:29.530Z,998.59
2022-11-03T12:55:29.526Z,998.54
2022-11-03T12:56:29.507Z,998.39
2022-11-03T12:57:29.526Z,998.43
2022-11-03T12:58:29.484Z,998.40
2022-11-03T12:59:29.488Z,998.39
2022-11-03T13:00:29.463Z,998.30
2022-11-03T13:01:29.578Z,998.28
2022-11-03T13:02:29.613Z,998.33
2022-11-03T13:03:29.446Z,998.31
2022-11-03T13:04:34.445Z,998.27
2022-11-03T13:05:29.412Z,998.25
2022-11-03T13:06:29.404Z,998.20
2022-11-03T13:07:34.504Z,998.09
2022-11-03T13:08:30.382Z,998.10
2022-11-03T13:09:29.372Z,998.03
2022-11-03T13:10:29.359Z,998.01
2022-11-03T13:11:29.363Z,998.00
2022-11-03T13:12:29.347Z,998.04
2022-11-03T13:13:29.346Z,998.03
2022-11-03T13:14:29.328Z,998.00
2022-11-03T13:15:34.323Z,997.96
2022-11-03T13:16:29.289Z,997.95
2022-11-03T13:17:40.385Z,997.87
2022-11-03T13:18:30.288Z,997.78
2022-11-03T13:19:29.261Z,997.75
2022-11-03T13:20:29.251Z,997.57
2022-11-03T13:21:29.237Z,997.55
2022-11-03T13:22:29.223Z,997.52
2022-11-03T13:23:29.227Z,997.49
2022-11-03T13:24:29.200Z,997.38
2022-11-03T13:25:29.293Z,997.36
2022-11-03T13:26:34.236Z,997.39
2022-11-03T13:27:29.175Z,997.31
2022-11-03T13:28:29.165Z,997.15
2022-11-03T13:29:34.967Z,997.16
2022-11-03T13:30:30.133Z,997.10
2022-11-03T13:31:29.125Z,997.20
2022-11-03T13:32:29.131Z,997.15
2022-11-03T13:33:29.125Z,997.01
2022-11-03T13:34:29.091Z,997.00
2022-11-03T13:35:29.230Z,996.94
2022-11-03T13:36:29.157Z,996.96
2022-11-03T13:37:34.097Z,996.96
2022-11-03T13:38:29.056Z,996.92
2022-11-03T13:39:29.037Z,996.86
2022-11-03T13:40:55.499Z,996.72
2022-11-03T13:41:30.024Z,996.71
2022-11-03T13:42:29.001Z,996.74
2022-11-03T13:43:29.013Z,996.74
2022-11-03T13:44:28.980Z,996.73
2022-11-03T13:45:28.990Z,996.77
2022-11-03T13:46:28.959Z,996.74
2022-11-03T13:47:42.053Z,996.71
2022-11-03T13:49:35.448Z,996.72
2022-11-03T13:50:12.513Z,996.73
2022-11-03T13:50:29.968Z,996.68
2022-11-03T13:51:28.904Z,996.63
2022-11-03T13:52:28.895Z,996.68
2022-11-03T13:55:45.283Z,996.63
2022-11-03T13:56:30.092Z,996.61
2022-11-03T13:59:34.841Z,996.57
2022-11-03T14:00:28.830Z,996.57
2022-11-03T14:01:29.521Z,996.60
2022-11-03T14:04:45.248Z,996.58
2022-11-03T14:05:29.748Z,996.59
2022-11-03T14:06:28.736Z,996.51
2022-11-03T14:07:28.728Z,996.55
2022-11-03T14:08:28.733Z,996.56
2022-11-03T14:09:28.730Z,996.52
2022-11-03T14:10:33.713Z,996.52
2022-11-03T14:11:28.690Z,996.49
2022-11-03T14:12:28.675Z,996.48
2022-11-03T14:13:28.671Z,996.45
2022-11-03T14:14:28.650Z,996.40
2022-11-03T14:15:28.639Z,996.44
2022-11-03T14:16:28.699Z,996.34
2022-11-03T14:17:28.644Z,996.42
2022-11-03T14:18:28.613Z,996.44
2022-11-03T14:19:36.532Z,996.42
2022-11-03T14:20:29.586Z,996.45
2022-11-03T14:21:33.603Z,996.36
2022-11-03T14:22:28.570Z,996.36
2022-11-03T14:23:28.578Z,996.35
2022-11-03T14:24:28.539Z,996.37
2022-11-03T14:25:28.533Z,996.24
2022-11-03T14:26:41.644Z,996.25
2022-11-03T14:27:29.604Z,996.20
2022-11-03T14:28:28.555Z,996.21
2022-11-03T14:29:28.488Z,996.18
2022-11-03T14:30:28.479Z,996.19
2022-11-03T14:31:28.464Z,996.11
2022-11-03T14:32:33.489Z,996.19
2022-11-03T14:33:28.451Z,996.12
2022-11-03T14:34:28.488Z,996.10
2022-11-03T14:35:28.422Z,996.04
2022-11-03T14:36:28.406Z,996.11
2022-11-03T14:37:28.525Z,996.02
2022-11-03T14:38:28.396Z,995.99
2022-11-03T14:39:28.384Z,996.01
2022-11-03T14:40:28.360Z,995.77
2022-11-03T14:41:28.352Z,995.90
2022-11-03T14:42:28.340Z,995.86
2022-11-03T14:43:35.287Z,995.83
2022-11-03T14:44:28.323Z,995.78
2022-11-03T14:45:28.326Z,995.84
2022-11-03T14:46:28.350Z,995.80
2022-11-03T14:47:28.285Z,995.77
2022-11-03T14:48:28.318Z,995.71
2022-11-03T14:49:28.263Z,995.64
2022-11-03T14:50:28.270Z,995.55
2022-11-03T14:51:28.275Z,995.64
2022-11-03T14:52:28.226Z,995.60
2022-11-03T14:53:28.235Z,995.57
2022-11-03T14:54:33.241Z,995.57
2022-11-03T14:55:28.196Z,995.60
2022-11-03T14:56:28.183Z,995.53
2022-11-03T14:57:28.172Z,995.57
2022-11-03T14:58:28.185Z,995.55
2022-11-03T14:59:28.154Z,995.52
2022-11-03T15:00:28.135Z,995.49
2022-11-03T15:01:28.343Z,995.42
2022-11-03T15:02:28.227Z,995.50
2022-11-03T15:03:28.152Z,995.48
2022-11-03T15:04:28.113Z,995.45
2022-11-03T15:05:33.105Z,995.50
2022-11-03T15:06:28.073Z,995.46
2022-11-03T15:07:28.077Z,995.46
2022-11-03T15:08:28.061Z,995.43
2022-11-03T15:09:28.044Z,995.46
2022-11-03T15:10:28.027Z,995.46
2022-11-03T15:11:28.018Z,995.42
2022-11-03T15:12:28.016Z,995.41
2022-11-03T15:13:28.021Z,995.32
2022-11-03T15:14:27.986Z,995.39
2022-11-03T15:15:27.977Z,995.39
2022-11-03T15:16:32.987Z,995.37
2022-11-03T15:17:28.025Z,995.51
2022-11-03T15:18:27.952Z,995.41
2022-11-03T15:19:27.954Z,995.45
2022-11-03T15:20:27.942Z,995.49
2022-11-03T15:21:27.910Z,995.49
2022-11-03T15:25:30.230Z,995.47
2022-11-03T15:26:27.854Z,995.41
2022-11-03T15:27:32.865Z,995.40
2022-11-03T15:28:27.843Z,995.42
2022-11-03T15:29:27.818Z,995.49
2022-11-03T15:30:27.818Z,995.38
2022-11-03T15:31:27.799Z,995.45
2022-11-03T15:32:30.392Z,995.35
2022-11-03T15:33:27.786Z,995.35
2022-11-03T15:34:27.775Z,995.34
2022-11-03T15:35:27.793Z,995.30
2022-11-03T15:36:27.760Z,995.28
2022-11-03T15:37:27.732Z,995.30
2022-11-03T15:38:32.754Z,995.24
2022-11-03T15:39:27.709Z,995.15
2022-11-03T15:40:27.695Z,995.14
2022-11-03T15:41:27.725Z,995.09
2022-11-03T15:42:27.671Z,995.05
2022-11-03T15:43:27.673Z,994.99
2022-11-03T15:44:27.651Z,995.06
2022-11-03T15:45:27.648Z,994.97
2022-11-03T15:46:27.631Z,994.91
2022-11-03T15:47:27.621Z,994.89
2022-11-03T15:48:32.010Z,994.77
2022-11-03T15:49:33.617Z,994.79
2022-11-03T15:50:27.590Z,994.78
2022-11-03T15:51:27.574Z,994.77
2022-11-03T15:52:27.588Z,994.79
2022-11-03T15:53:27.563Z,994.76
2022-11-03T15:54:27.550Z,994.74
2022-11-03T15:55:27.530Z,994.71
2022-11-03T15:56:27.589Z,994.67
2022-11-03T15:57:27.509Z,994.68
2022-11-03T15:58:27.514Z,994.64
2022-11-03T15:59:27.488Z,994.58
2022-11-03T16:00:32.507Z,994.59
2022-11-03T16:01:27.633Z,994.54
2022-11-03T16:02:40.822Z,994.54
2022-11-03T16:03:28.591Z,994.51
2022-11-03T16:04:27.441Z,994.50
2022-11-03T16:05:27.427Z,994.49
2022-11-03T16:06:53.714Z,994.46
2022-11-03T16:07:28.396Z,994.51
2022-11-03T16:08:27.417Z,994.53
2022-11-03T16:09:27.376Z,994.53
2022-11-03T16:10:27.375Z,994.49
2022-11-03T16:11:32.375Z,994.49
2022-11-03T16:12:27.344Z,994.42
2022-11-03T16:13:27.353Z,994.46
2022-11-03T16:14:27.320Z,994.46
2022-11-03T16:15:27.312Z,994.44
2022-11-03T16:16:27.299Z,994.48
2022-11-03T16:17:27.301Z,994.42
2022-11-03T16:18:27.302Z,994.42
2022-11-03T16:19:27.276Z,994.38
2022-11-03T16:20:27.263Z,994.39
2022-11-03T16:21:27.243Z,994.40
2022-11-03T16:22:32.253Z,994.37
2022-11-03T16:23:27.346Z,994.35
2022-11-03T16:24:33.515Z,994.44
2022-11-03T16:25:28.204Z,994.51
2022-11-03T16:26:27.191Z,994.44
2022-11-03T16:27:27.190Z,994.46
2022-11-03T16:28:27.170Z,994.51
2022-11-03T16:29:27.250Z,994.51
2022-11-03T16:30:27.149Z,994.49
2022-11-03T16:31:27.131Z,994.56
2022-11-03T16:32:27.122Z,994.56
2022-11-03T16:33:32.136Z,994.58
2022-11-03T16:34:27.111Z,994.62
2022-11-03T16:35:27.133Z,994.59
2022-11-03T16:36:27.081Z,994.63
2022-11-03T16:37:27.065Z,994.60
2022-11-03T16:38:27.057Z,994.63
2022-11-03T16:39:27.057Z,994.62
2022-11-03T16:40:27.065Z,994.60
2022-11-03T16:41:27.023Z,994.72
2022-11-03T16:42:27.012Z,994.68
2022-11-03T16:43:27.027Z,994.62
2022-11-03T16:44:32.020Z,994.61
2022-11-03T16:45:27.049Z,994.52
2022-11-03T16:46:26.986Z,994.54
2022-11-03T16:47:27.031Z,994.49
2022-11-03T16:48:26.947Z,994.46
2022-11-03T16:49:26.947Z,994.36
2022-11-03T16:50:26.930Z,994.35
2022-11-03T16:51:26.924Z,994.34
2022-11-03T16:52:26.903Z,994.34
2022-11-03T16:53:26.889Z,994.32
2022-11-03T16:54:26.890Z,994.30
2022-11-03T16:55:31.907Z,994.27
2022-11-03T16:56:26.867Z,994.27
2022-11-03T16:57:26.852Z,994.23
2022-11-03T16:58:26.837Z,994.18
2022-11-03T16:59:26.847Z,994.16
2022-11-03T17:00:26.815Z,994.14
2022-11-03T17:01:26.913Z,994.08
2022-11-03T17:02:26.929Z,994.03
2022-11-03T17:03:26.787Z,994.00
2022-11-03T17:04:26.782Z,993.89
2022-11-03T17:05:26.760Z,993.91
2022-11-03T17:06:31.769Z,993.84
2022-11-03T17:07:26.755Z,993.78
2022-11-03T17:08:51.402Z,993.78
2022-11-03T17:09:27.724Z,993.81
2022-11-03T17:10:26.704Z,993.74
2022-11-03T17:11:26.718Z,993.77
2022-11-03T17:12:26.684Z,993.76
2022-11-03T17:13:26.672Z,993.82
2022-11-03T17:14:26.675Z,993.79
2022-11-03T17:15:26.656Z,993.74
2022-11-03T17:16:26.653Z,993.69
2022-11-03T17:17:31.648Z,993.69
2022-11-03T17:18:26.618Z,993.66
2022-11-03T17:19:26.622Z,993.64
2022-11-03T17:20:26.597Z,993.69
2022-11-03T17:21:26.581Z,993.67
2022-11-03T17:22:26.572Z,993.63
2022-11-03T17:23:26.560Z,993.64
2022-11-03T17:24:26.565Z,993.63
2022-11-03T17:25:26.537Z,993.58
2022-11-03T17:26:26.537Z,993.55
2022-11-03T17:27:26.545Z,993.51